Time;durP1;ratioP1;P1;durP2;ratioP2;P2;SDS_P1;SDS_P2;PMS_P1;PMS_P2;Temp;Humidity;BMP_temperature;BMP_pressure;BME280_temperature;BME280_humidity;BME280_pressure;Samples;Min_cycle;Max_cycle;Signal;HPM_P1;HPM_P2
2022/01/16 00:05:39;;;;;;;59.33;19.77;;;3.00;91.90;;;;;;6212675;28;20049;-86
2022/01/16 00:08:43;;;;;;;66.65;20.67;;;3.00;91.90;;;;;;6205793;28;20077;-81
2022/01/16 00:11:45;;;;;;;75.97;22.15;;;3.10;92.00;;;;;;6213459;28;20084;-84
2022/01/16 00:14:47;;;;;;;64.72;21.63;;;3.10;91.90;;;;;;6212657;28;20141;-83
2022/01/16 00:17:54;;;;;;;70.88;20.65;;;3.10;91.90;;;;;;6214259;28;20047;-83
2022/01/16 00:20:56;;;;;;;68.97;20.95;;;3.10;91.80;;;;;;6212825;28;20049;-83
2022/01/16 00:24:00;;;;;;;72.80;22.15;;;3.00;92.00;;;;;;6211706;28;20046;-83
2022/01/16 00:27:02;;;;;;;66.35;20.30;;;3.00;91.90;;;;;;6212662;28;20054;-84
2022/01/16 00:30:04;;;;;;;72.07;20.95;;;3.00;92.00;;;;;;6211580;28;20051;-84
2022/01/16 00:33:06;;;;;;;65.97;20.48;;;3.00;92.10;;;;;;6210922;28;20129;-83
2022/01/16 00:36:14;;;;;;;65.50;21.25;;;3.00;92.10;;;;;;6212280;28;20054;-83
2022/01/16 00:39:18;;;;;;;69.70;21.77;;;3.00;92.00;;;;;;6210849;28;20130;-83
2022/01/16 00:42:20;;;;;;;62.28;22.85;;;3.00;92.00;;;;;;6211188;28;20054;-83
2022/01/16 00:45:22;;;;;;;79.55;22.33;;;3.00;92.10;;;;;;6215677;28;20065;-83
2022/01/16 00:48:24;;;;;;;81.05;23.15;;;2.90;92.20;;;;;;6214969;28;20069;-83
2022/01/16 00:51:26;;;;;;;58.53;20.40;;;2.90;92.30;;;;;;6215566;28;20061;-84
2022/01/16 00:54:31;;;;;;;50.33;18.98;;;2.90;92.30;;;;;;6215597;28;20050;-84
2022/01/16 00:57:32;;;;;;;66.75;20.13;;;3.00;92.20;;;;;;6216259;28;20054;-83
2022/01/16 01:00:36;;;;;;;71.57;19.73;;;2.80;92.10;;;;;;6213346;28;20455;-83
2022/01/16 01:03:42;;;;;;;59.10;17.50;;;2.80;92.30;;;;;;6216593;28;20070;-83
2022/01/16 01:06:47;;;;;;;62.42;18.42;;;2.80;92.30;;;;;;6216046;28;20542;-83
2022/01/16 01:09:50;;;;;;;65.40;16.90;;;2.90;92.30;;;;;;6217238;28;20056;-84
2022/01/16 01:12:54;;;;;;;61.90;18.38;;;2.90;92.10;;;;;;6213839;28;20050;-84
2022/01/16 01:16:01;;;;;;;69.22;19.33;;;2.80;92.10;;;;;;6213494;28;20518;-82
2022/01/16 01:19:03;;;;;;;58.53;17.20;;;2.90;92.20;;;;;;6215329;28;20048;-83
2022/01/16 01:22:06;;;;;;;80.45;23.27;;;2.80;92.10;;;;;;6215405;28;20056;-83
2022/01/16 01:25:13;;;;;;;73.50;21.35;;;2.80;92.00;;;;;;6215802;28;20046;-82
2022/01/16 01:28:15;;;;;;;54.10;17.80;;;2.70;92.10;;;;;;6217061;28;20050;-83
2022/01/16 01:31:17;;;;;;;73.95;19.55;;;2.60;92.00;;;;;;6205515;28;20401;-84
2022/01/16 01:34:19;;;;;;;67.97;20.38;;;2.50;92.20;;;;;;6188149;28;20489;-84
2022/01/16 01:37:21;;;;;;;84.20;20.98;;;2.50;92.10;;;;;;6187815;28;20061;-82
2022/01/16 01:40:26;;;;;;;79.85;19.10;;;2.40;92.00;;;;;;6199912;28;20106;-83
2022/01/16 01:53:35;;;;;;;60.53;19.38;;;2.40;92.10;;;;;;6215773;28;20563;-82
2022/01/16 01:56:39;;;;;;;64.35;19.52;;;2.40;91.90;;;;;;6217125;28;20073;-81
2022/01/16 01:59:41;;;;;;;59.42;18.58;;;2.30;91.90;;;;;;6218254;28;20043;-81
2022/01/16 02:02:55;;;;;;;75.88;23.23;;;2.20;91.80;;;;;;6220174;28;20069;-84
2022/01/16 02:05:57;;;;;;;65.75;18.65;;;2.20;92.00;;;;;;6219606;28;20070;-84
2022/01/16 02:09:01;;;;;;;62.05;18.13;;;2.10;92.00;;;;;;6219027;28;20046;-83
2022/01/16 02:12:06;;;;;;;57.20;17.77;;;2.10;92.10;;;;;;6218865;28;20042;-82
2022/01/16 02:15:32;;;;;;;60.38;19.83;;;2.00;92.10;;;;;;6217329;28;20062;-84
2022/01/16 02:28:52;;;;;;;60.15;18.70;;;1.80;92.40;;;;;;6217388;28;20046;-82
2022/01/16 02:32:02;;;;;;;87.78;21.00;;;1.80;92.40;;;;;;6216921;28;20054;-82
2022/01/16 02:35:03;;;;;;;64.43;20.92;;;1.80;92.40;;;;;;6216140;28;20047;-83
2022/01/16 02:38:06;;;;;;;55.25;19.25;;;1.80;92.30;;;;;;6216721;28;20065;-83
2022/01/16 02:41:09;;;;;;;57.00;17.90;;;1.80;92.20;;;;;;6216774;28;20065;-82
2022/01/16 02:44:19;;;;;;;70.47;20.30;;;1.90;92.10;;;;;;6215992;28;20054;-81
2022/01/16 02:47:22;;;;;;;64.43;17.80;;;1.90;92.00;;;;;;6214919;28;20050;-82
2022/01/16 02:50:24;;;;;;;64.70;19.88;;;1.90;92.00;;;;;;6214732;28;20452;-82
2022/01/16 02:53:26;;;;;;;52.25;16.65;;;1.90;91.90;;;;;;6215831;28;20051;-82
2022/01/16 02:56:34;;;;;;;61.50;17.17;;;1.80;91.70;;;;;;6216176;28;20098;-80
2022/01/16 02:59:37;;;;;;;48.63;16.33;;;1.70;91.70;;;;;;6216548;28;20057;-81
2022/01/16 03:02:39;;;;;;;64.55;16.80;;;1.60;91.70;;;;;;6215537;28;20077;-82
2022/01/16 03:05:41;;;;;;;73.30;21.15;;;1.50;91.80;;;;;;6214698;28;20057;-82
2022/01/16 03:08:43;;;;;;;54.10;16.88;;;1.50;92.00;;;;;;6214729;28;20115;-81
2022/01/16 03:11:48;;;;;;;67.80;17.10;;;1.50;92.00;;;;;;6216427;28;20146;-80
2022/01/16 03:14:49;;;;;;;72.88;17.00;;;1.70;92.00;;;;;;6210703;28;20046;-82
2022/01/16 03:21:53;;;;;;;57.33;17.75;;;1.50;91.80;;;;;;6207759;28;20130;-83
2022/01/16 03:24:37;;;;;;;65.95;17.63;;;1.40;92.00;;;;;;6207428;28;20520;-83
2022/01/16 03:27:40;;;;;;;64.75;17.80;;;1.30;92.10;;;;;;6208730;28;20078;-83
2022/01/16 03:30:42;;;;;;;66.47;19.33;;;1.30;92.30;;;;;;6208025;28;20128;-83
2022/01/16 03:33:44;;;;;;;71.13;20.95;;;1.20;92.50;;;;;;6205618;28;20519;-83
2022/01/16 03:36:46;;;;;;;68.07;17.27;;;1.20;92.50;;;;;;6207040;28;20054;-83
2022/01/16 03:39:48;;;;;;;139.70;25.85;;;1.20;92.50;;;;;;6208714;28;20078;-82
2022/01/16 03:42:51;;;;;;;48.25;18.35;;;1.10;92.50;;;;;;6207012;28;20189;-84
2022/01/16 03:45:53;;;;;;;72.93;19.27;;;1.10;92.70;;;;;;6207436;28;20106;-84
2022/01/16 03:48:55;;;;;;;57.67;18.33;;;1.10;92.80;;;;;;6209613;28;20520;-84
2022/01/16 03:51:57;;;;;;;68.97;18.77;;;1.20;92.80;;;;;;6213405;28;20538;-83
2022/01/16 03:54:59;;;;;;;77.90;20.13;;;1.20;92.80;;;;;;6214990;28;20070;-83
2022/01/16 03:58:03;;;;;;;107.10;19.42;;;1.30;92.80;;;;;;6213363;28;20089;-83
2022/01/16 04:01:05;;;;;;;74.88;21.00;;;1.30;92.70;;;;;;6217671;28;20050;-83
2022/01/16 04:04:07;;;;;;;61.90;19.75;;;1.40;92.70;;;;;;6219277;28;20050;-80
2022/01/16 04:07:12;;;;;;;70.43;22.17;;;1.30;92.60;;;;;;6218962;28;20053;-82
2022/01/16 04:10:15;;;;;;;66.72;17.33;;;1.30;92.70;;;;;;6220264;28;20066;-85
2022/01/16 04:13:20;;;;;;;64.05;20.08;;;1.30;92.70;;;;;;6220871;28;20081;-83
2022/01/16 04:16:23;;;;;;;75.65;18.92;;;1.30;92.80;;;;;;6221346;28;20054;-85
2022/01/16 04:19:25;;;;;;;63.22;17.58;;;1.30;92.80;;;;;;6215410;28;20416;-84
2022/01/16 04:22:27;;;;;;;68.03;17.38;;;1.30;92.90;;;;;;6212802;28;20054;-84
2022/01/16 04:25:29;;;;;;;72.47;17.85;;;1.30;93.00;;;;;;6214277;28;20097;-84
2022/01/16 04:28:32;;;;;;;51.00;17.10;;;1.30;93.00;;;;;;6212778;28;20074;-84
2022/01/16 04:31:34;;;;;;;65.93;19.50;;;1.40;93.00;;;;;;6215133;28;20097;-83
2022/01/16 04:34:36;;;;;;;92.13;25.77;;;1.40;92.80;;;;;;6211668;28;20069;-83
2022/01/16 04:37:38;;;;;;;103.38;23.65;;;1.40;92.90;;;;;;6211206;28;20133;-84
2022/01/16 04:43:47;;;;;;;84.80;19.77;;;1.50;92.70;;;;;;6211425;28;20155;-82
2022/01/16 04:44:05;;;;;;;65.93;20.85;;;1.50;92.80;;;;;;6212350;28;20416;-83
2022/01/16 04:47:07;;;;;;;80.82;23.52;;;1.50;92.60;;;;;;6209710;28;20062;-83
2022/01/16 04:50:11;;;;;;;59.42;17.48;;;1.50;92.60;;;;;;6211938;28;20527;-82
2022/01/16 04:53:13;;;;;;;62.45;16.08;;;1.40;92.60;;;;;;6213851;28;20050;-83
2022/01/16 04:56:15;;;;;;;60.58;17.75;;;1.40;93.00;;;;;;6213400;28;20046;-83
2022/01/16 04:59:20;;;;;;;80.15;20.85;;;1.40;92.70;;;;;;6213293;28;20049;-81
2022/01/16 05:02:22;;;;;;;64.38;18.20;;;1.30;92.60;;;;;;6215274;28;20050;-82
2022/01/16 05:05:24;;;;;;;72.60;17.25;;;1.30;92.80;;;;;;6213619;28;20074;-83
2022/01/16 05:08:26;;;;;;;61.10;18.52;;;1.30;92.90;;;;;;6214100;28;20504;-83
2022/01/16 05:11:28;;;;;;;73.75;17.90;;;1.30;93.00;;;;;;6213164;28;20114;-83
2022/01/16 05:17:50;;;;;;;55.28;13.90;;;1.40;92.60;;;;;;6213615;28;20030;-83
2022/01/16 05:20:52;;;;;;;48.90;16.98;;;1.30;92.70;;;;;;6214874;28;20057;-83
2022/01/16 05:23:54;;;;;;;75.35;22.15;;;1.30;92.70;;;;;;6215189;28;20129;-83
2022/01/16 05:26:56;;;;;;;57.40;17.73;;;1.30;92.80;;;;;;6214588;28;20046;-83
2022/01/16 05:29:59;;;;;;;51.33;15.18;;;1.30;92.70;;;;;;6214183;28;20069;-82
2022/01/16 05:33:01;;;;;;;51.03;14.45;;;1.30;92.60;;;;;;6218136;28;20113;-83
2022/01/16 05:36:02;;;;;;;43.47;14.52;;;1.30;92.50;;;;;;6217056;28;20043;-82
2022/01/16 05:39:04;;;;;;;45.63;14.57;;;1.30;92.50;;;;;;6220636;28;20114;-84
2022/01/16 05:42:08;;;;;;;50.17;17.30;;;1.10;92.40;;;;;;6219683;28;20130;-83
2022/01/16 05:45:11;;;;;;;51.00;15.38;;;1.10;92.60;;;;;;6217711;28;20046;-85
2022/01/16 05:48:13;;;;;;;48.25;15.52;;;1.10;92.70;;;;;;6218704;28;20048;-82
2022/01/16 05:51:15;;;;;;;51.50;17.17;;;1.10;92.40;;;;;;6218182;28;20527;-82
2022/01/16 05:54:16;;;;;;;50.17;17.77;;;1.00;92.30;;;;;;6217906;28;20050;-83
2022/01/16 05:57:18;;;;;;;41.42;15.20;;;0.90;92.50;;;;;;6213620;28;20056;-83
2022/01/16 06:00:22;;;;;;;40.25;14.25;;;0.90;92.60;;;;;;6213424;28;20050;-84
2022/01/16 06:03:23;;;;;;;42.28;11.73;;;0.80;92.60;;;;;;6211209;28;20133;-84
2022/01/16 06:06:25;;;;;;;46.70;15.82;;;0.80;92.70;;;;;;6211377;28;20146;-82
2022/01/16 06:09:27;;;;;;;48.30;14.43;;;0.80;92.80;;;;;;6212674;28;20125;-83
2022/01/16 06:12:29;;;;;;;46.55;14.70;;;0.80;93.00;;;;;;6211133;28;20101;-84
2022/01/16 06:15:32;;;;;;;48.08;11.48;;;0.90;93.00;;;;;;6210549;28;20137;-84
2022/01/16 06:18:34;;;;;;;51.58;14.98;;;1.00;92.80;;;;;;6211496;28;20504;-83
2022/01/16 06:21:36;;;;;;;40.80;14.45;;;1.10;92.80;;;;;;6212410;28;20046;-82
2022/01/16 06:24:37;;;;;;;35.75;13.88;;;1.20;92.50;;;;;;6212483;28;20050;-84
2022/01/16 06:27:40;;;;;;;44.40;12.50;;;1.20;92.40;;;;;;6213542;28;20050;-84
2022/01/16 06:30:43;;;;;;;39.33;16.65;;;1.10;92.40;;;;;;6213757;28;20069;-80
2022/01/16 06:33:45;;;;;;;41.45;14.23;;;1.10;92.40;;;;;;6213590;28;20420;-82
2022/01/16 06:36:47;;;;;;;45.53;13.90;;;1.00;92.40;;;;;;6211413;28;20057;-81
2022/01/16 06:39:49;;;;;;;40.72;15.02;;;1.10;92.40;;;;;;6213998;28;20050;-80
2022/01/16 06:42:51;;;;;;;49.38;16.50;;;1.10;92.40;;;;;;6213434;28;20056;-80
2022/01/16 06:45:54;;;;;;;52.03;16.27;;;1.10;92.30;;;;;;6240020;22;20050;-82
2022/01/16 06:48:56;;;;;;;36.70;15.13;;;1.10;92.20;;;;;;6228186;28;20049;-82
2022/01/16 06:51:58;;;;;;;39.38;14.55;;;1.10;92.10;;;;;;6228418;28;20060;-82
2022/01/16 06:54:59;;;;;;;41.92;13.18;;;1.10;92.20;;;;;;6226986;28;20415;-81
2022/01/16 06:58:01;;;;;;;43.38;14.65;;;1.10;92.20;;;;;;6227615;28;20046;-80
2022/01/16 07:01:04;;;;;;;44.90;15.05;;;1.10;92.30;;;;;;6227192;28;20099;-81
2022/01/16 07:04:06;;;;;;;46.13;16.45;;;1.20;92.40;;;;;;6227209;28;20060;-81
2022/01/16 07:07:08;;;;;;;42.60;15.68;;;1.20;92.30;;;;;;6226694;28;20053;-81
2022/01/16 07:10:10;;;;;;;50.22;15.30;;;1.20;92.20;;;;;;6226545;28;20048;-80
2022/01/16 07:13:13;;;;;;;54.58;17.17;;;1.20;92.20;;;;;;6230460;28;20046;-80
2022/01/16 07:16:16;;;;;;;41.35;14.98;;;1.30;92.20;;;;;;6229483;28;20060;-82
2022/01/16 07:19:18;;;;;;;48.70;15.80;;;1.30;92.20;;;;;;6228530;28;20041;-80
2022/01/16 07:22:21;;;;;;;49.67;17.65;;;1.30;92.20;;;;;;6227842;28;20038;-82
2022/01/16 07:25:23;;;;;;;54.08;17.08;;;1.40;92.10;;;;;;6226608;28;20046;-81
2022/01/16 07:28:25;;;;;;;39.67;14.10;;;1.50;92.10;;;;;;6202438;28;20072;-82
2022/01/16 07:31:28;;;;;;;44.00;17.50;;;1.50;92.00;;;;;;6223925;28;20846;-80
2022/01/16 07:34:30;;;;;;;49.10;17.75;;;1.60;91.90;;;;;;6253949;28;20538;-79
2022/01/16 07:37:31;;;;;;;47.22;19.65;;;1.60;91.80;;;;;;6225820;28;20050;-81
2022/01/16 07:40:34;;;;;;;39.55;15.43;;;1.60;92.00;;;;;;6222110;28;20047;-81
2022/01/16 07:43:36;;;;;;;50.70;16.52;;;1.60;91.90;;;;;;6207351;28;20054;-82
2022/01/16 07:46:39;;;;;;;48.22;19.92;;;1.70;92.00;;;;;;6206106;28;20046;-82
2022/01/16 07:49:41;;;;;;;45.03;16.38;;;1.70;92.10;;;;;;6207007;28;20097;-80
2022/01/16 07:52:43;;;;;;;38.13;16.10;;;1.80;92.00;;;;;;6206147;28;20129;-82
2022/01/16 07:55:45;;;;;;;43.08;16.05;;;1.90;91.90;;;;;;6206488;28;20542;-81
2022/01/16 07:58:47;;;;;;;44.55;14.60;;;1.90;91.80;;;;;;6206186;28;20057;-82
2022/01/16 08:01:50;;;;;;;58.85;21.27;;;1.90;91.80;;;;;;6213337;28;20627;-81
2022/01/16 08:04:52;;;;;;;44.40;18.40;;;1.90;91.90;;;;;;6222243;28;20052;-80
2022/01/16 08:07:54;;;;;;;44.55;15.82;;;2.00;92.00;;;;;;6229798;28;20050;-80
2022/01/16 08:10:56;;;;;;;42.83;15.93;;;2.00;91.90;;;;;;6229127;28;20590;-80
2022/01/16 08:13:58;;;;;;;52.30;17.27;;;2.00;91.90;;;;;;6229269;28;20046;-79
2022/01/16 08:17:01;;;;;;;49.05;16.80;;;2.00;91.90;;;;;;6229004;28;20499;-81
2022/01/16 08:20:05;;;;;;;50.25;17.13;;;2.00;91.90;;;;;;6229451;28;20081;-81
2022/01/16 08:23:07;;;;;;;47.47;16.10;;;2.10;91.90;;;;;;6228840;28;20053;-79
2022/01/16 08:26:08;;;;;;;43.88;15.57;;;2.00;91.90;;;;;;6228696;28;20053;-80
2022/01/16 08:29:10;;;;;;;43.95;16.75;;;2.00;92.10;;;;;;6229095;28;20042;-81
2022/01/16 08:32:14;;;;;;;50.20;18.98;;;2.00;92.10;;;;;;6225481;28;20051;-82
2022/01/16 08:35:15;;;;;;;45.10;19.13;;;2.00;92.20;;;;;;6224522;28;20046;-81
2022/01/16 08:38:17;;;;;;;51.33;20.17;;;2.00;92.10;;;;;;6221791;28;20065;-81
2022/01/16 08:41:19;;;;;;;49.40;20.92;;;2.10;92.10;;;;;;6228837;28;20045;-80
2022/01/16 08:44:21;;;;;;;48.80;19.85;;;2.10;92.00;;;;;;6238402;28;20100;-80
2022/01/16 08:47:26;;;;;;;51.63;18.13;;;2.10;92.00;;;;;;6231934;28;20058;-81
2022/01/16 08:50:28;;;;;;;46.85;20.35;;;2.10;91.90;;;;;;6232730;28;20073;-81
2022/01/16 08:53:30;;;;;;;48.45;18.33;;;2.10;91.80;;;;;;6232143;28;20396;-81
2022/01/16 08:56:32;;;;;;;48.15;20.70;;;2.20;91.90;;;;;;6230678;28;20526;-80
2022/01/16 08:59:34;;;;;;;51.03;19.65;;;2.30;91.80;;;;;;6231207;28;20064;-81
2022/01/16 09:02:37;;;;;;;58.10;20.35;;;2.30;91.60;;;;;;6223340;28;20503;-81
2022/01/16 09:05:39;;;;;;;54.00;19.98;;;2.40;91.50;;;;;;6224897;28;20045;-81
2022/01/16 09:08:41;;;;;;;65.80;20.58;;;2.50;91.30;;;;;;6250148;28;20048;-81
2022/01/16 09:11:42;;;;;;;55.78;22.50;;;2.50;91.30;;;;;;6230656;28;20046;-81
2022/01/16 09:14:44;;;;;;;52.53;20.05;;;2.60;91.20;;;;;;6205344;28;20049;-81
2022/01/16 09:17:48;;;;;;;71.35;27.95;;;2.60;91.00;;;;;;6223134;28;20064;-80
2022/01/16 09:20:50;;;;;;;45.72;20.92;;;2.60;90.90;;;;;;6246453;28;20052;-81
2022/01/16 09:23:52;;;;;;;55.67;22.73;;;2.60;90.90;;;;;;6239415;28;20153;-81
2022/01/16 09:26:54;;;;;;;51.70;23.60;;;2.50;90.90;;;;;;6252079;28;20055;-82
2022/01/16 09:29:56;;;;;;;44.10;18.63;;;2.60;90.70;;;;;;6238935;28;20045;-81
2022/01/16 09:33:00;;;;;;;51.70;18.88;;;2.60;90.70;;;;;;6241184;28;20520;-81
2022/01/16 09:36:02;;;;;;;55.15;24.63;;;2.60;91.20;;;;;;6227126;28;20427;-81
2022/01/16 09:39:04;;;;;;;55.63;20.60;;;2.60;90.80;;;;;;6216704;28;20101;-81
2022/01/16 09:42:07;;;;;;;50.17;19.60;;;2.70;90.60;;;;;;6204855;28;20431;-82
2022/01/16 09:45:12;;;;;;;47.40;20.23;;;2.80;90.40;;;;;;6234415;28;20044;-81
2022/01/16 09:48:16;;;;;;;51.15;20.38;;;2.80;90.30;;;;;;6222302;28;20050;-81
2022/01/16 09:51:18;;;;;;;46.33;18.00;;;2.80;90.30;;;;;;6200351;28;20050;-80
2022/01/16 09:54:21;;;;;;;48.80;19.75;;;3.00;90.50;;;;;;6197688;28;20523;-79
2022/01/16 09:57:23;;;;;;;45.67;17.70;;;3.10;90.20;;;;;;6215236;28;20110;-81
2022/01/16 10:00:25;;;;;;;68.75;28.38;;;3.30;90.00;;;;;;6218380;28;20050;-81
2022/01/16 10:03:37;;;;;;;47.20;20.38;;;3.30;89.60;;;;;;6219166;28;20053;-81
2022/01/16 10:06:39;;;;;;;51.25;24.05;;;3.40;89.60;;;;;;6228478;28;20058;-81
2022/01/16 10:09:43;;;;;;;42.42;19.65;;;3.50;89.80;;;;;;6229543;28;20052;-81
2022/01/16 10:12:49;;;;;;;54.47;24.25;;;3.60;89.40;;;;;;6230334;28;20045;-81
2022/01/16 10:15:55;;;;;;;56.28;22.05;;;3.60;89.40;;;;;;6229806;28;20058;-81
2022/01/16 10:18:58;;;;;;;48.45;20.80;;;3.70;89.60;;;;;;6226981;28;20046;-81
2022/01/16 10:22:07;;;;;;;55.58;22.02;;;3.70;89.30;;;;;;6226168;28;20046;-81
2022/01/16 10:25:10;;;;;;;45.78;17.67;;;3.70;90.00;;;;;;6225862;28;20052;-80
2022/01/16 10:28:18;;;;;;;49.85;20.88;;;3.70;89.50;;;;;;6227183;28;20100;-80
2022/01/16 10:31:22;;;;;;;49.85;19.45;;;3.60;89.70;;;;;;6227747;28;20034;-81
2022/01/16 10:34:31;;;;;;;50.83;20.08;;;3.70;89.90;;;;;;6219105;28;20053;-79
2022/01/16 10:37:34;;;;;;;54.00;22.35;;;3.60;90.10;;;;;;6228036;28;20123;-80
2022/01/16 10:40:37;;;;;;;49.20;18.20;;;3.60;90.20;;;;;;6205989;28;20050;-80
2022/01/16 10:43:41;;;;;;;62.67;21.98;;;3.60;90.10;;;;;;6164770;28;1049336;-81
2022/01/16 10:46:42;;;;;;;50.85;19.70;;;3.70;90.40;;;;;;6202255;28;20072;-81
2022/01/16 10:49:59;;;;;;;54.53;20.73;;;3.80;90.60;;;;;;6202501;28;20046;-82
2022/01/16 10:53:02;;;;;;;50.45;19.23;;;4.00;89.80;;;;;;6202861;28;20049;-82
2022/01/16 10:56:05;;;;;;;51.67;18.30;;;3.90;89.30;;;;;;6201985;28;20089;-80
2022/01/16 10:59:21;;;;;;;48.70;18.10;;;4.00;89.20;;;;;;6203371;28;20050;-81
2022/01/16 11:02:23;;;;;;;46.88;19.60;;;4.00;89.00;;;;;;6212449;28;20411;-82
2022/01/16 11:05:28;;;;;;;50.55;20.45;;;4.00;89.10;;;;;;6225366;28;20046;-82
2022/01/16 11:08:29;;;;;;;40.25;17.55;;;4.10;88.90;;;;;;6226837;28;20061;-81
2022/01/16 11:11:32;;;;;;;53.45;20.90;;;4.20;88.60;;;;;;6228783;28;20522;-82
2022/01/16 11:14:34;;;;;;;41.13;19.27;;;4.30;88.30;;;;;;6228206;28;20056;-82
2022/01/16 11:17:38;;;;;;;54.08;21.17;;;4.40;88.10;;;;;;6227574;28;20050;-81
2022/01/16 11:20:51;;;;;;;53.83;22.33;;;4.50;87.50;;;;;;6227565;28;20046;-81
2022/01/16 11:24:11;;;;;;;45.17;18.20;;;4.60;87.30;;;;;;6227705;28;20068;-79
2022/01/16 11:27:16;;;;;;;48.67;19.73;;;4.60;86.90;;;;;;6226840;28;20046;-80
2022/01/16 11:30:18;;;;;;;53.38;19.83;;;4.80;86.80;;;;;;6241087;28;20060;-82
2022/01/16 11:33:21;;;;;;;44.88;17.55;;;5.00;85.60;;;;;;6252287;28;20049;-83
2022/01/16 11:36:27;;;;;;;43.58;17.50;;;5.10;85.00;;;;;;6229731;28;20511;-81
2022/01/16 11:39:35;;;;;;;41.78;16.15;;;5.10;84.50;;;;;;6249596;28;20111;-82
2022/01/16 11:42:37;;;;;;;38.30;14.20;;;5.00;84.50;;;;;;6216430;28;20068;-82
2022/01/16 11:45:46;;;;;;;34.13;15.23;;;4.90;85.20;;;;;;6227859;28;20467;-82
2022/01/16 11:48:53;;;;;;;44.90;18.42;;;4.90;84.70;;;;;;6229154;28;20049;-82
2022/01/16 11:52:05;;;;;;;50.05;18.20;;;4.90;85.10;;;;;;6228582;28;20069;-83
2022/01/16 11:55:12;;;;;;;34.70;15.30;;;5.00;84.90;;;;;;6226731;28;20046;-83
2022/01/16 11:58:19;;;;;;;44.20;18.00;;;5.10;84.30;;;;;;6208002;28;20061;-82
2022/01/16 12:01:45;;;;;;;39.92;16.35;;;5.20;84.20;;;;;;6203769;28;20420;-80
2022/01/16 12:04:53;;;;;;;47.55;19.02;;;5.30;83.80;;;;;;6204619;28;20065;-83
2022/01/16 12:08:00;;;;;;;38.58;17.70;;;5.30;83.70;;;;;;6204504;28;20415;-83
2022/01/16 12:11:02;;;;;;;43.05;17.30;;;5.30;83.40;;;;;;6203831;28;20053;-83
2022/01/16 12:14:04;;;;;;;49.08;18.73;;;5.30;83.10;;;;;;6204694;28;20124;-82
2022/01/16 12:17:26;;;;;;;38.85;16.52;;;5.20;83.30;;;;;;6204172;28;20057;-83
2022/01/16 12:20:30;;;;;;;41.85;16.20;;;5.20;83.40;;;;;;6209049;28;20050;-82
2022/01/16 12:23:48;;;;;;;32.85;13.45;;;5.10;83.60;;;;;;6238661;28;20045;-82
2022/01/16 12:26:49;;;;;;;36.10;17.00;;;5.10;83.80;;;;;;6257899;28;20057;-82
2022/01/16 12:30:12;;;;;;;42.35;18.15;;;5.10;83.90;;;;;;6258118;28;20052;-80
2022/01/16 12:33:26;;;;;;;42.80;19.10;;;5.00;84.10;;;;;;6238232;28;20045;-81
2022/01/16 12:36:34;;;;;;;44.40;18.95;;;5.00;84.20;;;;;;6248805;28;20045;-80
2022/01/16 12:39:43;;;;;;;46.75;19.33;;;5.00;84.40;;;;;;6233666;28;20520;-80
2022/01/16 12:42:45;;;;;;;40.15;19.33;;;5.10;84.30;;;;;;6228402;28;20120;-80
2022/01/16 12:45:47;;;;;;;47.58;22.35;;;5.00;85.60;;;;;;6248444;22;20109;-80
2022/01/16 12:48:52;;;;;;;35.33;16.45;;;5.20;87.10;;;;;;6227182;28;20046;-80
2022/01/16 12:51:55;;;;;;;42.72;18.83;;;5.40;84.60;;;;;;6227173;28;20045;-82
2022/01/16 12:55:07;;;;;;;43.92;16.35;;;5.50;83.90;;;;;;6233839;28;20050;-80
2022/01/16 12:58:15;;;;;;;34.55;15.50;;;5.50;83.20;;;;;;6226056;28;20056;-80
2022/01/16 13:01:18;;;;;;;41.15;17.20;;;5.40;83.10;;;;;;6220902;28;20038;-80
2022/01/16 13:04:21;;;;;;;34.08;17.63;;;5.40;83.80;;;;;;6209805;28;20125;-80
2022/01/16 13:07:23;;;;;;;39.95;16.48;;;5.30;83.30;;;;;;6215632;28;20176;-80
2022/01/16 13:10:26;;;;;;;37.00;15.80;;;5.20;83.40;;;;;;6225805;28;20177;-80
2022/01/16 13:13:33;;;;;;;37.88;14.23;;;5.20;83.80;;;;;;6225921;28;20056;-80
2022/01/16 13:16:36;;;;;;;35.90;15.57;;;5.20;84.00;;;;;;6226094;28;20181;-81
2022/01/16 13:19:49;;;;;;;38.05;16.83;;;5.20;84.10;;;;;;6226714;28;20064;-82
2022/01/16 13:22:51;;;;;;;52.33;22.80;;;5.20;84.10;;;;;;6225887;28;20045;-80
2022/01/16 13:25:57;;;;;;;94.38;31.95;;;5.20;84.10;;;;;;6225896;28;20069;-80
2022/01/16 13:29:04;;;;;;;46.17;18.60;;;5.10;84.30;;;;;;6224975;28;20050;-83
2022/01/16 13:32:08;;;;;;;112.43;40.40;;;5.10;84.60;;;;;;6221728;28;20555;-81
2022/01/16 13:35:21;;;;;;;52.13;18.67;;;5.10;84.60;;;;;;6205584;28;20046;-80
2022/01/16 13:38:30;;;;;;;43.38;17.15;;;5.10;84.50;;;;;;6220956;28;20045;-82
2022/01/16 13:41:33;;;;;;;40.35;15.98;;;5.20;84.60;;;;;;6222956;28;20504;-79
2022/01/16 13:44:35;;;;;;;52.50;20.52;;;5.20;84.30;;;;;;6199576;28;20109;-80
2022/01/16 13:47:37;;;;;;;56.10;20.13;;;5.30;84.10;;;;;;6200950;28;20137;-80
2022/01/16 13:50:42;;;;;;;37.42;16.17;;;5.30;84.10;;;;;;6200384;28;20060;-82
2022/01/16 13:53:44;;;;;;;32.55;15.57;;;5.30;84.00;;;;;;6200477;28;20050;-82
2022/01/16 13:56:51;;;;;;;33.95;15.52;;;5.30;83.60;;;;;;6199664;28;20567;-83
2022/01/16 13:59:58;;;;;;;34.35;15.77;;;5.30;83.40;;;;;;6202880;28;20064;-79
2022/01/16 14:03:18;;;;;;;37.90;14.97;;;5.40;83.80;;;;;;6211553;28;20052;-82
2022/01/16 14:06:20;;;;;;;46.25;19.10;;;5.40;82.90;;;;;;6224363;28;20372;-80
2022/01/16 14:09:23;;;;;;;46.42;22.65;;;5.30;83.00;;;;;;6225048;28;20049;-80
2022/01/16 14:12:26;;;;;;;37.83;17.45;;;5.40;83.00;;;;;;6225028;28;20137;-82
2022/01/16 14:15:28;;;;;;;34.03;15.85;;;5.40;83.00;;;;;;6225078;28;20050;-82
2022/01/16 14:18:41;;;;;;;32.60;15.57;;;5.40;82.70;;;;;;6224313;28;20511;-81
2022/01/16 14:22:02;;;;;;;35.25;14.82;;;5.40;82.70;;;;;;6249257;28;20049;-81
2022/01/16 14:25:05;;;;;;;34.65;17.55;;;5.50;82.60;;;;;;6249011;28;20046;-80
2022/01/16 14:28:08;;;;;;;34.00;16.33;;;5.60;82.50;;;;;;6246971;28;20410;-81
2022/01/16 14:31:10;;;;;;;28.25;14.15;;;5.60;82.10;;;;;;6221973;28;20050;-81
2022/01/16 14:34:12;;;;;;;34.67;15.45;;;5.60;81.90;;;;;;6208933;28;20157;-81
2022/01/16 14:37:15;;;;;;;30.48;14.23;;;5.60;81.90;;;;;;6202720;28;20415;-82
2022/01/16 14:40:18;;;;;;;30.23;14.48;;;5.60;81.90;;;;;;6202032;28;20061;-79
2022/01/16 14:43:22;;;;;;;45.70;17.90;;;5.60;81.80;;;;;;6207189;28;20048;-81
2022/01/16 14:46:25;;;;;;;34.25;16.25;;;5.60;81.80;;;;;;6223387;28;20168;-81
2022/01/16 14:49:27;;;;;;;38.35;17.55;;;5.70;81.80;;;;;;6223435;28;20133;-79
2022/01/16 14:52:29;;;;;;;37.55;17.60;;;5.60;81.70;;;;;;6223810;28;20052;-79
2022/01/16 14:55:31;;;;;;;37.92;16.33;;;5.80;81.90;;;;;;6223849;28;20045;-81
2022/01/16 14:58:34;;;;;;;35.55;17.25;;;5.80;81.60;;;;;;6223497;28;20141;-81
2022/01/16 15:01:37;;;;;;;42.05;18.70;;;5.80;81.50;;;;;;6216955;28;20667;-81
2022/01/16 15:04:39;;;;;;;35.45;17.45;;;5.80;81.30;;;;;;6214573;28;20061;-80
2022/01/16 15:07:43;;;;;;;34.55;17.48;;;5.80;81.50;;;;;;6224082;28;20050;-81
2022/01/16 15:10:45;;;;;;;43.85;19.48;;;5.60;81.70;;;;;;6223782;28;20050;-81
2022/01/16 15:13:48;;;;;;;36.97;16.73;;;5.60;82.40;;;;;;6225129;28;20045;-82
2022/01/16 15:16:55;;;;;;;38.83;18.05;;;5.60;82.50;;;;;;6223520;28;20133;-80
2022/01/16 15:20:03;;;;;;;40.35;18.25;;;5.60;82.80;;;;;;6224324;28;20125;-79
2022/01/16 15:23:04;;;;;;;35.25;14.68;;;5.60;82.80;;;;;;6223770;28;20042;-81
2022/01/16 15:26:06;;;;;;;39.47;18.10;;;5.60;83.00;;;;;;6223013;28;20050;-80
2022/01/16 15:29:11;;;;;;;40.67;19.23;;;5.70;83.00;;;;;;6223182;28;20046;-80
2022/01/16 15:32:13;;;;;;;37.25;18.05;;;5.80;82.90;;;;;;6214840;28;20526;-82
2022/01/16 15:35:16;;;;;;;40.20;18.88;;;5.80;82.70;;;;;;6203192;28;20050;-82
2022/01/16 15:38:27;;;;;;;37.03;18.05;;;5.80;82.80;;;;;;6198531;28;20061;-80
2022/01/16 15:41:28;;;;;;;35.97;19.50;;;5.80;83.00;;;;;;6202232;28;20508;-79
2022/01/16 15:44:32;;;;;;;43.95;19.88;;;5.70;83.00;;;;;;6218391;28;20047;-80
2022/01/16 15:47:34;;;;;;;44.85;21.02;;;5.80;83.30;;;;;;6198589;28;20084;-80
2022/01/16 15:50:35;;;;;;;34.85;18.52;;;5.70;83.50;;;;;;6198276;28;20625;-81
2022/01/16 15:53:37;;;;;;;43.05;19.05;;;5.60;83.70;;;;;;6199515;28;20222;-81
2022/01/16 15:56:39;;;;;;;38.35;18.52;;;5.60;83.80;;;;;;6202673;28;20057;-80
2022/01/16 15:59:42;;;;;;;44.90;20.90;;;5.50;84.20;;;;;;6204309;28;20082;-81
2022/01/16 16:02:45;;;;;;;42.60;21.45;;;5.50;84.70;;;;;;6220985;28;20128;-81
2022/01/16 16:05:46;;;;;;;41.03;20.70;;;5.40;84.90;;;;;;6231712;28;20046;-83
2022/01/16 16:08:48;;;;;;;73.97;31.20;;;5.40;85.10;;;;;;6232221;28;20132;-84
2022/01/16 16:11:50;;;;;;;46.28;21.83;;;5.30;85.30;;;;;;6230338;28;20052;-82
2022/01/16 16:14:53;;;;;;;47.53;21.92;;;5.30;85.80;;;;;;6231613;28;20419;-83